This is the latest recevied weather packets stored in our database for station/object W1SGB. If no packets are shown the sender has not sent any weather packets the latest 10 day(s).
| Time | Temp. | Humidity | Pressure | Rain* | Wind** | Luminosity | Snow |
|---|---|---|---|---|---|---|---|
| 1777482620 | 13.89° C | 64% | 1015 hPa | 0 mm | - | 853 W/m² | - |
| 1777479618 | 12.78° C | 68% | 1015.2 hPa | 0 mm | - | 720 W/m² | - |
| 1777479021 | 12.22° C | 70% | 1015.4 hPa | 0 mm | - | 612 W/m² | - |
| 1777477238 | 11.67° C | 71% | 1015.3 hPa | 0 mm | - | 362 W/m² | - |
| 1777476619 | 12.22° C | 70% | 1015.5 hPa | 0 mm | - | 399 W/m² | - |
| 1777471220 | 11.11° C | 71% | 1016.7 hPa | 0 mm | - | 57 W/m² | - |
| 1777464625 | 7.78° C | 83% | 1017.6 hPa | 0 mm | - | 114 W/m² | - |
| 1777463425 | 7.78° C | 83% | 1017.6 hPa | 0 mm | - | 98 W/m² | - |
| 1777458626 | 6.67° C | 87% | 1017.1 hPa | 0 mm | - | 19 W/m² | - |
| 1777457427 | 6.67° C | 87% | 1017.4 hPa | 0 mm | - | 8 W/m² | - |
| 1777456827 | 6.67° C | 87% | 1017.5 hPa | 0 mm | - | 4 W/m² | - |
| 1777455626 | 6.67° C | 87% | 1017.1 hPa | 0 mm | - | 1 W/m² | - |
| 1777454418 | 6.67° C | 87% | 1016.8 hPa | 0 mm | - | 0 W/m² | - |
| 1777452049 | 6.11° C | 88% | 1016.9 hPa | 0 mm | - | 0 W/m² | - |
| 1777451428 | 6.11° C | 89% | 1016.9 hPa | 0 mm | - | 0 W/m² | - |
| 1777448429 | 5° C | 89% | 1017.2 hPa | 0 mm | - | 0 W/m² | - |
| 1777437018 | 6.67° C | 84% | 1018.4 hPa | 0 mm | - | 0 W/m² | - |
| 1777435221 | 6.11° C | 83% | 1018.4 hPa | 0 mm | - | 0 W/m² | - |
| 1777433438 | 6.67° C | 81% | 1018.5 hPa | 0 mm | - | 0 W/m² | - |
| 1777431616 | 7.22° C | 77% | 1018.9 hPa | 0 mm | - | 0 W/m² | - |
| 1777430420 | 7.78° C | 75% | 1018.9 hPa | 0 mm | - | 0 W/m² | - |
| 1777427418 | 8.33° C | 71% | 1019.6 hPa | 0 mm | - | 0 W/m² | - |
| 1777425617 | 8.33° C | 69% | 1019.6 hPa | 0 mm | - | 0 W/m² | - |
* Rain latest hour (hover to see other rain measurements)
** Current wind speed in m/s (hover to see current wind gust speed)